Latest Coastal Weather Observations for Port Fairy

IDV60701

Issued at 6:41 am EDT Saturday 3 December 2016 (issued every 10 minutes, with the page automatically refreshed every 10 minutes)

About coastal observations | Map of coastal stations | Coastal observations for VIC | Marine services | Other Formats
Station Details ID: 090175 Name: PORT FAIRY AWS Lat: -38.39 Lon: 142.23 Height: 10.0 m
Data from the previous 72 hours. | See also: Recent months at Port Fairy
Date/Time
EDT
Temp
°C
Wind Pressure Rain since
9am
mm
Weather Cloud Vis
km
Sea
Height
m
Swell
Dir  Spd
kts
Gust
kts
hPa Trend Height
m
Period
s
Dir
03/06:30am 5.5 N 3 5 1015.6 - 0.0 - - - - - - -
03/06:00am 5.7 NNW 3 4 1015.2 - 0.0 - - - - - - -
03/05:30am 5.9 NNW 3 5 1015.0 - 0.0 - - - - - - -
03/05:00am 6.1 NNW 3 4 1014.7 - 0.0 - - - - - - -
03/04:30am 6.4 NNW 3 4 1014.8 - 0.0 - - - - - - -
03/04:00am 6.8 NNW 3 5 1015.0 - 0.0 - - - - - - -
03/03:30am 7.1 NNW 2 4 1015.0 - 0.0 - - - - - - -
03/03:00am 7.3 NNW 3 4 1015.2 - 0.0 - - - - - - -
03/02:30am 7.6 N 3 4 1015.6 - 0.0 - - - - - - -
03/02:00am 8.0 N 3 4 1015.7 - 0.0 - - - - - - -
03/01:30am 8.5 NNW 3 4 1016.0 - 0.0 - - - - - - -
03/01:00am 9.2 NW 3 4 1016.3 - 0.0 - - - - - - -
03/12:30am 10.2 NNW 2 3 1016.5 - 0.0 - - - - - - -
03/12:00am 11.9 WSW 4 9 1016.5 - 0.0 - - - - - - -
 
Date/Time
EDT
Temp
°C
Wind Pressure Rain since
9am
mm
Weather Cloud Vis
km
Sea
Height
m
Swell
Dir  Spd
kts
Gust
kts
hPa Trend Height
m
Period
s
Dir
02/11:30pm 12.9 WSW 6 8 1016.5 - 0.0 - - - - - - -
02/11:00pm 13.1 WSW 5 7 1016.6 - 0.0 - - - - - - -
02/10:30pm 13.1 SW 5 8 1016.6 - 0.0 - - - - - - -
02/10:00pm 13.1 SW 6 9 1016.4 - 0.0 - - - - - - -
02/09:30pm 13.3 SW 7 9 1016.3 - 0.0 - - - - - - -
02/09:00pm 13.4 SW 8 11 1016.2 - 0.0 - - - - - - -
02/08:30pm 13.8 SW 9 13 1015.8 - 0.0 - - - - - - -
02/08:00pm 14.5 SW 9 12 1015.5 - 0.0 - - - - - - -
02/07:30pm 15.0 SW 10 14 1015.1 - 0.0 - - - - - - -
02/07:00pm 15.4 SW 12 15 1015.1 - 0.0 - - - - - - -
02/06:30pm 15.8 SW 11 14 1015.0 - 0.0 - - - - - - -
02/06:00pm 16.4 SW 11 14 1014.9 - 0.0 - - - - - - -
02/05:30pm 16.2 SW 11 15 1014.8 - 0.0 - - - - - - -
02/05:00pm 16.6 SW 11 15 1014.8 - 0.0 - - - - - - -
02/04:30pm 17.0 SW 11 15 1014.7 - 0.0 - - - - - - -
02/04:00pm 16.3 SW 12 15 1014.7 - 0.0 - - - - - - -
02/03:30pm 17.6 SW 12 16 1014.7 - 0.0 - - - - - - -
02/03:00pm 17.5 SW 12 16 1014.6 - 0.0 - - - - - - -
02/02:30pm 17.4 SW 12 15 1014.6 - 0.0 - - - - - - -
02/02:00pm 17.1 SW 11 16 1014.5 - 0.0 - - - - - - -
02/01:30pm 17.3 SW 12 17 1014.3 - 0.0 - - - - - - -
02/01:00pm 17.2 SW 12 17 1014.2 - 0.0 - - - - - - -
02/12:30pm 17.3 SW 11 16 1014.1 - 0.0 - - - - - - -
02/12:00pm 16.7 SW 12 16 1013.8 - 0.0 - - - - - - -
02/11:30am 17.1 SW 12 16 1013.4 - 0.0 - - - - - - -
02/11:00am 16.6 SW 12 17 1013.2 - 0.0 - - - - - - -
02/10:30am 15.4 SW 13 17 1013.0 - 0.0 - - - - - - -
02/10:00am 16.1 SW 14 18 1012.7 - 0.0 - - - - - - -
02/09:30am 15.1 SW 14 18 1012.3 - 0.0 - - - - - - -
02/09:00am 14.1 SW 14 19 1012.0 - 0.2 - - - - - - -
02/08:30am 14.1 WSW 10 14 1011.4 - 0.2 - - - - - - -
02/08:00am 13.7 WSW 7 10 1011.1 - 0.2 - - - - - - -
02/07:30am 13.4 WSW 9 13 1010.6 - 0.2 - - - - - - -
02/07:00am 12.2 WNW 5 13 1010.2 - 0.2 - - - - - - -
02/06:30am 11.3 NW 5 7 1009.8 - 0.2 - - - - - - -
02/06:00am 11.2 NW 5 7 1009.1 - 0.0 - - - - - - -
02/05:30am 10.6 NNW 5 8 1008.5 - 0.0 - - - - - - -
02/05:00am 10.3 NNW 5 7 1008.3 - 0.0 - - - - - - -
02/04:30am 9.7 NW 6 8 1008.3 - 0.0 - - - - - - -
02/04:00am 9.5 NW 4 7 1008.2 - 0.0 - - - - - - -
02/03:30am 9.2 NW 6 8 1008.3 - 0.0 - - - - - - -
02/03:00am 9.3 NW 5 7 1008.1 - 0.0 - - - - - - -
02/02:30am 9.6 NNW 5 6 1008.3 - 0.0 - - - - - - -
02/02:00am 9.8 NNW 5 6 1008.4 - 0.0 - - - - - - -
02/01:30am 10.1 NNW 4 6 1008.5 - 0.0 - - - - - - -
02/01:00am 10.6 NNW 4 6 1008.5 - 0.0 - - - - - - -
02/12:30am 10.9 NNW 4 5 1008.5 - 0.0 - - - - - - -
02/12:00am 11.4 NW 3 4 1008.5 - 0.0 - - - - - - -
 
Date/Time
EDT
Temp
°C
Wind Pressure Rain since
9am
mm
Weather Cloud Vis
km
Sea
Height
m
Swell
Dir  Spd
kts
Gust
kts
hPa Trend Height
m
Period
s
Dir
01/11:30pm 12.6 NNW 3 5 1008.6 - 0.0 - - - - - - -
01/11:00pm 13.6 WNW 4 6 1008.5 - 0.0 - - - - - - -
01/10:30pm 14.3 WSW 9 12 1008.6 - 0.0 - - - - - - -
01/10:00pm 14.0 WSW 7 9 1008.4 - 0.0 - - - - - - -
01/09:30pm 14.3 WSW 9 11 1008.2 - 0.0 - - - - - - -
01/09:00pm 14.6 WSW 10 13 1008.0 - 0.0 - - - - - - -
01/08:30pm 14.8 WSW 11 16 1008.0 - 0.0 - - - - - - -
01/08:00pm 15.3 WSW 11 16 1007.9 - 0.0 - - - - - - -
01/07:30pm 15.9 SW 12 15 1007.8 - 0.0 - - - - - - -
01/07:00pm 16.5 WSW 12 16 1007.7 - 0.0 - - - - - - -
01/06:30pm 16.6 SW 11 14 1007.5 - 0.0 - - - - - - -
01/06:00pm 16.9 SW 11 13 1007.4 - 0.0 - - - - - - -
01/05:30pm 17.4 SSW 7 10 1006.9 - 0.0 - - - - - - -
01/05:00pm 17.3 S 8 11 1006.5 - 0.0 - - - - - - -
01/04:30pm 17.4 S 7 9 1006.8 - 0.0 - - - - - - -
01/04:00pm 17.4 SSE 6 9 1006.8 - 0.0 - - - - - - -
01/03:30pm 18.2 SSE 7 9 1006.9 - 0.0 - - - - - - -
01/03:00pm 18.6 SE 6 9 1007.0 - 0.0 - - - - - - -
01/02:30pm 17.8 SSE 6 9 1007.2 - 0.0 - - - - - - -
01/02:00pm 18.4 S 6 8 1008.0 - 0.0 - - - - - - -
01/01:30pm 17.4 SSW 5 7 1008.1 - 0.0 - - - - - - -
01/01:00pm 17.4 S 5 7 1008.2 - 0.0 - - - - - - -
01/12:30pm 17.9 SSW 5 8 1008.5 - 0.0 - - - - - - -
01/12:00pm 16.9 SSW 5 7 1008.8 - 0.0 - - - - - - -
01/11:30am 17.4 SSW 4 6 1009.0 - 0.0 - - - - - - -
01/11:00am 17.1 SW 6 8 1009.0 - 0.0 - - - - - - -
01/10:30am 16.7 SSW 4 6 1009.0 - 0.0 - - - - - - -
01/10:00am 16.1 S 3 5 1009.2 - 0.0 - - - - - - -
01/09:30am 15.9 SW 4 5 1009.7 - 0.0 - - - - - - -
01/09:00am 15.4 SW 3 4 1009.7 - 0.0 - - - - - - -
01/08:30am 15.1 SW 3 5 1009.8 - 0.0 - - - - - - -
01/08:00am 14.9 SSW 4 6 1009.4 - 0.0 - - - - - - -
01/07:30am 14.8 S 4 6 1009.1 - 0.0 - - - - - - -
01/07:00am 14.3 SSE 4 6 1008.7 - 0.0 - - - - - - -
01/06:30am 14.2 S 3 5 1008.7 - 0.0 - - - - - - -
01/06:00am 13.9 SSE 6 8 1008.4 - 0.0 - - - - - - -
01/05:30am 13.8 SSE 5 8 1008.4 - 0.0 - - - - - - -
01/05:00am 13.4 SE 3 5 1008.4 - 0.0 - - - - - - -
01/04:30am 13.8 SSE 3 7 1008.8 - 0.0 - - - - - - -
01/04:00am 13.3 SE 3 3 1008.7 - 0.0 - - - - - - -
01/03:30am 13.7 SSE 4 6 1009.1 - 0.0 - - - - - - -
01/03:00am 13.3 SSE 6 8 1009.4 - 0.0 - - - - - - -
01/02:30am 14.1 SSE 8 10 1009.6 - 0.0 - - - - - - -
01/02:00am 14.2 SSE 7 10 1010.2 - 0.0 - - - - - - -
01/01:30am 13.4 SSE 6 8 1010.3 - 0.0 - - - - - - -
01/01:00am 13.7 SSE 7 10 1010.8 - 0.0 - - - - - - -
01/12:30am 13.6 SSE 9 13 1010.9 - 0.0 - - - - - - -
01/12:00am 14.4 SSE 9 11 1011.3 - 0.0 - - - - - - -
 
Date/Time
EDT
Temp
°C
Wind Pressure Rain since
9am
mm
Weather Cloud Vis
km
Sea
Height
m
Swell
Dir  Spd
kts
Gust
kts
hPa Trend Height
m
Period
s
Dir
30/11:30pm 14.4 SSE 8 10 1011.7 - 0.0 - - - - - - -
30/11:00pm 14.4 SSE 10 12 1011.9 - 0.0 - - - - - - -
30/10:30pm 14.4 SSE 11 14 1012.0 - 0.0 - - - - - - -
30/10:00pm 14.6 SSE 11 14 1012.2 - 0.0 - - - - - - -
30/09:30pm 14.6 SSE 10 14 1012.1 - 0.0 - - - - - - -
30/09:00pm 14.6 SSE 9 12 1011.7 - 0.0 - - - - - - -
30/08:30pm 14.5 SSE 11 14 1011.6 - 0.0 - - - - - - -
30/08:00pm 14.8 SSE 10 14 1011.5 - 0.0 - - - - - - -
30/07:30pm 15.6 SSE 9 12 1011.4 - 0.0 - - - - - - -
30/07:00pm 15.8 SSE 11 15 1011.3 - 0.0 - - - - - - -
30/06:30pm 16.3 SSE 10 15 1010.9 - 0.0 - - - - - - -
30/06:00pm 16.0 S 9 13 1010.9 - 0.0 - - - - - - -
30/05:30pm 16.2 S 10 13 1011.0 - 0.0 - - - - - - -
30/05:00pm 16.3 S 9 13 1011.0 - 0.0 - - - - - - -
30/04:30pm 16.4 S 9 13 1010.8 - 0.0 - - - - - - -
30/04:00pm 17.5 S 9 13 1010.8 - 0.0 - - - - - - -
30/03:30pm 17.2 S 9 13 1010.8 - 0.0 - - - - - - -
30/03:00pm 16.8 S 9 12 1011.0 - 0.0 - - - - - - -
30/02:30pm 16.9 SSE 10 14 1011.0 - 0.0 - - - - - - -
30/02:00pm 16.5 SSE 11 13 1011.1 - 0.0 - - - - - - -
30/01:30pm 17.6 SSE 9 11 1011.1 - 0.0 - - - - - - -
30/01:00pm 17.8 SSE 9 11 1011.0 - 0.0 - - - - - - -
30/12:30pm 17.1 SE 11 13 1010.7 - 0.0 - - - - - - -
30/12:00pm 17.8 SE 10 13 1011.1 - 0.0 - - - - - - -
30/11:30am 17.6 SSE 11 14 1011.2 - 0.0 - - - - - - -
30/11:00am 17.3 SSE 11 14 1011.1 - 0.0 - - - - - - -
30/10:30am 16.4 SE 11 13 1011.2 - 0.0 - - - - - - -
30/10:00am 16.0 SE 11 13 1011.2 - 0.0 - - - - - - -
30/09:30am 15.5 SSE 9 12 1011.8 - 0.0 - - - - - - -
30/09:00am 15.2 SSE 9 12 1011.6 - 0.0 - - - - - - -
30/08:30am 15.2 SSE 10 13 1011.1 - 0.0 - - - - - - -
30/08:00am 15.1 SSE 9 12 1010.7 - 0.0 - - - - - - -
30/07:30am 14.7 SSE 6 9 1010.3 - 0.0 - - - - - - -
30/07:00am 14.4 SSE 7 9 1010.1 - 0.0 - - - - - - -

Other Formats:

Comma delimited format used in spreadsheet applications
http://www.bom.gov.au/fwo/IDV60701/IDV60701.94830.axf

JavaScript Object Notation format (JSON) in row-major order
http://www.bom.gov.au/fwo/IDV60701/IDV60701.94830.json